Погода Уистлана 2 недели

Чьяпас, Мексика

23 февраля-07 марта
  • 23февраля
    Сегодня
    +22°
    +36°
    Небольшая облачность
    ВремяПогодаТемператураВлажностьДавлениеВетер, м/сВероятность осадков
    00:00Ясно и безоблачно+24°C81 %753 мм0.9 м/с2 %
    03:00Ясно и безоблачно+23°C74 %752 мм0.6 м/с2 %
    06:00Ясно и безоблачно+22°C65 %753 мм0.7 м/с2 %
    09:00Ясно и безоблачно+28°C48 %754 мм1.0 м/с2 %
    12:00Ясно и безоблачно+34°C35 %753 мм2.6 м/с2 %
    15:00Небольшая облачность+34°C46 %751 мм4.3 м/с2 %
    18:00Ясно и безоблачно+29°C61 %752 мм2.1 м/с2 %
    21:00Ясно и безоблачно+26°C73 %754 мм1.4 м/с2 %
  • 24февраля
    Суббота
    +19°
    +36°
    Ясно и безоблачно
    ВремяПогодаТемператураВлажностьДавлениеВетер, м/сВероятность осадков
    00:00Ясно и безоблачно+25°C74 %754 мм1.2 м/с2 %
    03:00Ясно и безоблачно+24°C77 %753 мм0.8 м/с2 %
    06:00Ясно и безоблачно+23°C67 %753 мм0.8 м/с2 %
    09:00Ясно и безоблачно+28°C56 %755 мм0.9 м/с2 %
    12:00Ясно и безоблачно+34°C40 %754 мм1.9 м/с2 %
    15:00Ясно и безоблачно+35°C47 %753 мм3.0 м/с2 %
    18:00Ясно и безоблачно+30°C66 %754 мм1.2 м/с3 %
    21:00Ясно и безоблачно+27°C84 %755 мм0.8 м/с2 %
  • 25февраля
    Воскресенье
    +23°
    +35°
    Практически безоблачно
    ВремяПогодаТемператураВлажностьДавлениеВетер, м/сВероятность осадков
    00:00Ясно и безоблачно+25°C62 %755 мм1.4 м/с2 %
    03:00Ясно и безоблачно+23°C54 %754 мм0.9 м/с2 %
    06:00Ясно и безоблачно+20°C52 %754 мм1.5 м/с2 %
    09:00Ясно и безоблачно+27°C40 %756 мм1.1 м/с2 %
    12:00Ясно и безоблачно+34°C33 %755 мм2.0 м/с2 %
    15:00Практически безоблачно+35°C45 %753 мм3.2 м/с2 %
    18:00Ясно и безоблачно+31°C66 %754 мм1.9 м/с3 %
    21:00Ясно и безоблачно+27°C78 %755 мм0.6 м/с2 %
  • 26февраля
    Понедельник
    +19°
    +35°
    Пасмурно, сплошная облачность
    ВремяПогодаТемператураВлажностьДавлениеВетер, м/сВероятность осадков
    00:00Ясно и безоблачно+26°C77 %755 мм0.9 м/с6 %
    03:00Ясно и безоблачно+24°C70 %754 мм0.9 м/с4 %
    06:00Ясно и безоблачно+23°C62 %755 мм0.9 м/с6 %
    09:00Ясно и безоблачно+28°C60 %756 мм1.1 м/с4 %
    12:00Практически безоблачно+34°C43 %755 мм2.8 м/с8 %
    15:00Пасмурно, сплошная облачность+34°C46 %753 мм3.6 м/с20 %
    18:00Облачно с прояснениями+30°C60 %754 мм1.9 м/с15 %
    21:00Ясно и безоблачно+27°C70 %754 мм1.5 м/с2 %
Мы используем cookies
Соглашаюсь